Time;durP1;ratioP1;P1;durP2;ratioP2;P2;SDS_P1;SDS_P2;PMS_P1;PMS_P2;Temp;Humidity;BMP_temperature;BMP_pressure;BME280_temperature;BME280_humidity;BME280_pressure;Samples;Min_cycle;Max_cycle;Signal;HPM_P1;HPM_P2
2024/02/02 00:01:14;;;;;;;21.85;9.05;;;8.20;99.90;;;;;;5034294;28;20053;-80
2024/02/02 00:03:39;;;;;;;24.33;8.43;;;8.20;99.90;;;;;;5037983;28;20561;-81
2024/02/02 00:06:05;;;;;;;17.92;7.88;;;8.20;99.90;;;;;;5040947;28;20572;-81
2024/02/02 00:08:30;;;;;;;17.95;8.25;;;8.20;99.90;;;;;;5041833;28;20021;-80
2024/02/02 00:10:56;;;;;;;16.35;8.20;;;8.20;99.90;;;;;;5036844;28;20033;-80
2024/02/02 00:13:22;;;;;;;20.27;8.88;;;8.20;99.90;;;;;;5030142;28;20025;-80
2024/02/02 00:15:47;;;;;;;18.95;8.43;;;8.20;99.90;;;;;;5032397;28;20029;-80
2024/02/02 00:18:13;;;;;;;17.60;9.07;;;8.20;99.90;;;;;;5035984;28;20064;-80
2024/02/02 00:20:38;;;;;;;19.98;9.25;;;8.20;99.90;;;;;;5040551;28;20654;-81
2024/02/02 00:23:04;;;;;;;16.60;7.65;;;8.20;99.90;;;;;;5036983;28;20032;-80
2024/02/02 00:25:30;;;;;;;15.75;7.80;;;8.20;99.90;;;;;;5035368;28;20020;-80
2024/02/02 00:27:55;;;;;;;17.52;8.45;;;8.20;99.90;;;;;;5037934;28;20025;-80
2024/02/02 00:30:21;;;;;;;18.80;7.68;;;8.20;99.90;;;;;;5038260;28;20629;-80
2024/02/02 00:32:47;;;;;;;17.83;8.30;;;8.20;99.90;;;;;;5040626;28;20067;-80
2024/02/02 00:35:13;;;;;;;16.33;7.90;;;8.20;99.90;;;;;;5044979;28;20021;-80
2024/02/02 00:37:39;;;;;;;15.48;8.18;;;8.20;99.90;;;;;;5031505;28;20033;-80
2024/02/02 00:40:06;;;;;;;17.02;7.45;;;8.20;99.90;;;;;;5039151;28;20031;-81
2024/02/02 00:42:31;;;;;;;17.70;7.97;;;8.20;99.90;;;;;;5036392;28;20394;-80
2024/02/02 00:44:57;;;;;;;17.50;7.07;;;8.20;99.90;;;;;;5036771;28;20029;-80
2024/02/02 00:47:23;;;;;;;13.05;7.20;;;8.20;99.90;;;;;;5037094;28;20032;-81
2024/02/02 00:49:48;;;;;;;13.88;7.38;;;8.20;99.90;;;;;;5030358;28;20402;-80
2024/02/02 00:52:14;;;;;;;14.40;7.57;;;8.20;99.90;;;;;;5038647;28;20048;-81
2024/02/02 00:54:40;;;;;;;12.60;6.05;;;8.20;99.90;;;;;;5039936;28;20539;-80
2024/02/02 00:57:05;;;;;;;12.93;6.75;;;8.20;99.90;;;;;;5041999;28;20021;-81
2024/02/02 00:59:31;;;;;;;11.75;6.75;;;8.20;99.90;;;;;;5034486;28;20091;-80
2024/02/02 01:01:57;;;;;;;14.88;7.82;;;8.20;99.90;;;;;;5037266;28;20026;-80
2024/02/02 01:04:22;;;;;;;13.88;6.75;;;8.20;99.90;;;;;;5030800;28;20089;-81
2024/02/02 01:06:48;;;;;;;12.25;6.70;;;8.20;99.90;;;;;;5035645;28;20028;-80
2024/02/02 01:09:14;;;;;;;11.10;6.05;;;8.20;99.90;;;;;;5035397;28;20033;-80
2024/02/02 01:11:40;;;;;;;12.95;6.57;;;8.20;99.90;;;;;;5038792;28;20018;-80
2024/02/02 01:14:05;;;;;;;11.75;6.50;;;8.20;99.90;;;;;;5040288;28;20044;-80
2024/02/02 01:16:31;;;;;;;12.50;5.88;;;8.20;99.90;;;;;;5036350;28;20415;-80
2024/02/02 01:18:56;;;;;;;10.93;6.53;;;8.20;99.90;;;;;;5044087;28;20091;-81
2024/02/02 01:21:22;;;;;;;13.77;6.85;;;8.20;99.90;;;;;;5043698;28;20032;-81
2024/02/02 01:23:48;;;;;;;14.10;6.70;;;8.20;99.90;;;;;;5044155;28;20056;-80
2024/02/02 01:26:14;;;;;;;10.32;6.43;;;8.20;99.90;;;;;;5040171;28;20022;-80
2024/02/02 01:28:39;;;;;;;11.30;6.78;;;8.20;99.90;;;;;;5036105;28;20112;-80
2024/02/02 01:31:05;;;;;;;14.27;6.53;;;8.20;99.90;;;;;;5039247;28;20033;-80
2024/02/02 01:33:31;;;;;;;10.75;5.95;;;8.20;99.90;;;;;;5038369;28;20398;-80
2024/02/02 01:35:57;;;;;;;14.55;7.53;;;8.20;99.90;;;;;;5035322;28;20082;-80
2024/02/02 01:38:22;;;;;;;13.25;7.47;;;8.20;99.90;;;;;;5035345;28;20645;-80
2024/02/02 01:40:48;;;;;;;11.93;7.20;;;8.20;99.90;;;;;;5035198;28;20025;-80
2024/02/02 01:43:14;;;;;;;14.48;6.53;;;8.20;99.90;;;;;;5043496;28;20032;-80
2024/02/02 01:45:39;;;;;;;12.73;6.82;;;8.20;99.90;;;;;;5039026;28;20049;-80
2024/02/02 01:48:07;;;;;;;11.38;6.63;;;8.20;99.90;;;;;;5042369;28;20044;-80
2024/02/02 01:50:33;;;;;;;12.40;7.07;;;8.20;99.90;;;;;;5019762;28;20021;-80
2024/02/02 01:53:00;;;;;;;10.57;6.45;;;8.20;99.90;;;;;;5035869;28;20028;-80
2024/02/02 01:55:26;;;;;;;14.50;6.57;;;8.20;99.90;;;;;;5036065;28;20025;-80
2024/02/02 01:57:52;;;;;;;12.68;7.18;;;8.20;99.90;;;;;;5041595;28;20055;-80
2024/02/02 02:00:18;;;;;;;14.65;6.38;;;8.20;99.90;;;;;;5034209;28;20060;-81
2024/02/02 02:02:43;;;;;;;15.95;6.70;;;8.20;99.90;;;;;;5035556;28;20551;-80
2024/02/02 02:05:09;;;;;;;12.45;6.97;;;8.20;99.90;;;;;;5038653;28;20402;-80
2024/02/02 02:07:35;;;;;;;16.95;6.93;;;8.20;99.90;;;;;;5035755;28;20048;-80
2024/02/02 02:10:03;;;;;;;14.45;5.70;;;8.20;99.90;;;;;;5036297;28;20021;-80
2024/02/02 02:12:29;;;;;;;10.65;5.97;;;8.10;99.90;;;;;;5035486;28;20022;-80
2024/02/02 02:14:54;;;;;;;14.10;6.20;;;8.10;99.90;;;;;;5040850;28;20146;-81
2024/02/02 02:17:20;;;;;;;13.05;6.70;;;8.20;99.90;;;;;;5035278;28;20045;-80
2024/02/02 02:19:49;;;;;;;9.20;5.63;;;8.10;99.90;;;;;;5039774;28;20083;-81
2024/02/02 02:22:14;;;;;;;12.50;6.45;;;8.20;99.90;;;;;;5040365;28;20075;-80
2024/02/02 02:24:40;;;;;;;14.02;5.80;;;8.10;99.90;;;;;;5040650;28;20044;-80
2024/02/02 02:27:06;;;;;;;10.38;5.90;;;8.10;99.90;;;;;;5034077;28;20479;-80
2024/02/02 02:29:31;;;;;;;11.85;5.93;;;8.10;99.90;;;;;;5037609;28;20029;-80
2024/02/02 02:31:57;;;;;;;10.23;5.80;;;8.10;99.90;;;;;;5042824;28;20029;-80
2024/02/02 02:34:26;;;;;;;10.48;5.43;;;8.10;99.90;;;;;;5038765;28;20035;-80
2024/02/02 02:36:52;;;;;;;18.50;6.68;;;8.10;99.90;;;;;;5037410;28;20103;-80
2024/02/02 02:39:18;;;;;;;9.82;5.72;;;8.10;99.90;;;;;;5039321;28;20115;-80
2024/02/02 02:41:43;;;;;;;13.35;6.85;;;8.10;99.90;;;;;;5038195;28;20104;-79
2024/02/02 02:44:09;;;;;;;10.65;6.07;;;8.20;99.90;;;;;;5041877;28;20483;-80
2024/02/02 02:46:35;;;;;;;16.38;6.72;;;8.10;99.90;;;;;;5038143;28;20037;-80
2024/02/02 02:49:00;;;;;;;15.65;8.15;;;8.10;99.90;;;;;;5037389;28;20474;-80
2024/02/02 02:51:26;;;;;;;14.85;8.20;;;8.10;99.90;;;;;;5044878;28;20056;-80
2024/02/02 02:53:51;;;;;;;22.23;10.15;;;8.10;99.90;;;;;;5037749;28;20450;-81
2024/02/02 02:56:17;;;;;;;18.27;8.40;;;8.10;99.90;;;;;;5041228;28;20107;-80
2024/02/02 02:58:43;;;;;;;21.80;9.20;;;8.10;99.90;;;;;;5037985;28;20052;-80
2024/02/02 03:01:08;;;;;;;14.05;7.53;;;8.10;99.90;;;;;;5039374;28;20029;-80
2024/02/02 03:03:34;;;;;;;17.17;8.75;;;8.10;99.90;;;;;;5039055;28;20496;-82
2024/02/02 03:05:59;;;;;;;14.07;7.63;;;8.10;99.90;;;;;;5042285;28;20076;-80
2024/02/02 03:08:25;;;;;;;15.48;7.60;;;8.10;99.90;;;;;;5040298;28;20583;-81
2024/02/02 03:10:50;;;;;;;18.20;7.90;;;8.10;99.90;;;;;;5040723;28;20013;-80
2024/02/02 03:13:16;;;;;;;15.30;7.20;;;8.10;99.90;;;;;;5039174;28;20057;-80
2024/02/02 03:15:42;;;;;;;14.93;8.02;;;8.10;99.90;;;;;;5038779;28;20096;-80
2024/02/02 03:18:09;;;;;;;11.23;7.47;;;8.10;99.90;;;;;;5034962;28;20025;-80
2024/02/02 03:20:35;;;;;;;11.57;6.60;;;8.10;99.90;;;;;;5039433;28;20394;-80
2024/02/02 03:23:01;;;;;;;15.98;7.57;;;8.10;99.90;;;;;;5037549;28;20033;-80
2024/02/02 03:25:26;;;;;;;12.40;7.10;;;8.20;99.90;;;;;;5042014;28;20414;-81
2024/02/02 03:27:52;;;;;;;13.38;7.35;;;8.10;99.90;;;;;;5038516;28;20024;-80
2024/02/02 03:30:17;;;;;;;11.27;6.53;;;8.10;99.90;;;;;;5037588;28;20029;-81
2024/02/02 03:32:44;;;;;;;12.63;7.22;;;8.10;99.90;;;;;;5037496;28;20487;-80
2024/02/02 03:35:10;;;;;;;10.52;6.60;;;8.10;99.90;;;;;;5035568;28;20026;-80
2024/02/02 03:37:36;;;;;;;11.38;6.57;;;8.10;99.90;;;;;;5039013;28;20025;-92
2024/02/02 03:40:04;;;;;;;12.13;6.38;;;8.10;99.90;;;;;;5039750;28;20043;-91
2024/02/02 03:42:29;;;;;;;13.48;6.43;;;8.10;99.90;;;;;;5035939;28;20021;-93
2024/02/02 03:44:56;;;;;;;12.95;6.57;;;8.10;99.90;;;;;;5047487;28;20093;-90
2024/02/02 03:47:21;;;;;;;13.32;6.93;;;8.10;99.90;;;;;;5037755;28;20033;-90
2024/02/02 03:49:47;;;;;;;13.60;6.78;;;8.10;99.90;;;;;;5037453;28;20418;-91
2024/02/02 03:52:13;;;;;;;14.73;6.40;;;8.10;99.90;;;;;;5034131;28;20487;-91
2024/02/02 03:54:38;;;;;;;12.45;6.38;;;8.10;99.90;;;;;;5041420;28;20033;-91
2024/02/02 03:57:04;;;;;;;11.00;6.57;;;8.10;99.90;;;;;;5032982;28;20029;-92
2024/02/02 03:59:30;;;;;;;9.45;5.85;;;8.10;99.90;;;;;;5042441;28;20051;-91
2024/02/02 04:01:55;;;;;;;11.80;6.75;;;8.10;99.90;;;;;;5043918;28;20414;-91
2024/02/02 04:04:21;;;;;;;12.52;6.40;;;8.10;99.90;;;;;;5036821;28;20021;-90
2024/02/02 04:06:47;;;;;;;14.45;6.53;;;8.10;99.90;;;;;;5048740;28;20021;-91
2024/02/02 04:09:12;;;;;;;10.95;6.13;;;8.10;99.90;;;;;;5036054;28;20476;-92
2024/02/02 04:11:38;;;;;;;12.25;6.50;;;8.10;99.90;;;;;;5038332;28;20029;-91
2024/02/02 04:14:05;;;;;;;9.25;5.63;;;8.10;99.90;;;;;;5038849;28;20112;-93
2024/02/02 04:16:31;;;;;;;10.80;6.38;;;8.20;99.90;;;;;;5030262;28;20021;-92
2024/02/02 04:18:58;;;;;;;9.00;5.13;;;8.10;99.90;;;;;;5040753;28;20056;-92
2024/02/02 04:21:23;;;;;;;7.95;5.22;;;8.10;99.90;;;;;;5039139;28;20022;-91
2024/02/02 04:23:49;;;;;;;10.07;6.65;;;8.10;99.90;;;;;;5050095;28;20017;-93
2024/02/02 04:26:14;;;;;;;8.60;5.20;;;8.10;99.90;;;;;;5036909;28;20021;-91
2024/02/02 04:28:40;;;;;;;12.60;5.85;;;8.10;99.90;;;;;;5035010;28;20579;-91
2024/02/02 04:31:05;;;;;;;9.55;6.43;;;8.10;99.90;;;;;;5040091;28;20120;-92
2024/02/02 04:33:31;;;;;;;11.60;5.68;;;8.10;99.90;;;;;;5034665;28;20573;-92
2024/02/02 04:35:57;;;;;;;8.15;4.97;;;8.10;99.90;;;;;;5031670;28;20029;-91
2024/02/02 04:38:22;;;;;;;9.75;5.75;;;8.10;99.90;;;;;;5035248;28;20071;-91
2024/02/02 04:40:48;;;;;;;10.55;5.32;;;8.10;99.90;;;;;;5035937;28;20026;-90
2024/02/02 04:43:13;;;;;;;8.15;5.28;;;8.10;99.90;;;;;;5042854;28;20124;-91
2024/02/02 04:45:40;;;;;;;10.02;5.05;;;8.20;99.90;;;;;;5040893;28;20025;-90
2024/02/02 04:48:07;;;;;;;9.55;5.22;;;8.10;99.90;;;;;;5032825;28;20037;-91
2024/02/02 04:50:32;;;;;;;11.32;6.18;;;8.10;99.90;;;;;;5044623;28;20021;-92
2024/02/02 04:52:58;;;;;;;8.75;5.30;;;8.10;99.90;;;;;;5038828;28;20045;-92
2024/02/02 04:55:24;;;;;;;9.15;5.57;;;8.10;99.90;;;;;;5046556;28;20029;-90
2024/02/02 04:57:49;;;;;;;10.57;5.88;;;8.10;99.90;;;;;;5041986;28;20026;-91
2024/02/02 05:00:15;;;;;;;14.20;5.13;;;8.10;99.90;;;;;;5052692;28;20021;-90
2024/02/02 05:02:41;;;;;;;8.40;5.18;;;8.10;99.90;;;;;;5038516;28;20025;-91
2024/02/02 05:05:07;;;;;;;10.70;5.05;;;8.10;99.90;;;;;;5047439;28;20494;-91
2024/02/02 05:07:34;;;;;;;6.65;4.95;;;8.10;99.90;;;;;;5047973;28;20111;-91
2024/02/02 05:10:00;;;;;;;7.25;4.70;;;8.10;99.90;;;;;;5039921;28;20033;-91
2024/02/02 05:12:26;;;;;;;8.00;5.07;;;8.10;99.90;;;;;;5039038;28;20032;-91
2024/02/02 05:14:52;;;;;;;8.15;4.90;;;8.10;99.90;;;;;;5040568;28;20021;-91
2024/02/02 05:17:17;;;;;;;7.38;4.50;;;8.10;99.90;;;;;;5041647;28;20080;-91
2024/02/02 05:19:43;;;;;;;8.48;5.15;;;8.10;99.90;;;;;;5050010;28;20510;-91
2024/02/02 05:22:08;;;;;;;8.20;4.63;;;8.10;99.90;;;;;;5041322;28;20033;-91
2024/02/02 05:24:37;;;;;;;7.45;4.70;;;8.10;99.90;;;;;;5042216;28;20499;-91
2024/02/02 05:27:03;;;;;;;10.00;5.00;;;8.10;99.90;;;;;;5038315;28;20071;-91
2024/02/02 05:29:28;;;;;;;9.20;5.15;;;8.10;99.90;;;;;;5045143;28;20135;-90
2024/02/02 05:31:54;;;;;;;9.65;5.20;;;8.10;99.90;;;;;;5040266;28;20021;-91
2024/02/02 05:34:20;;;;;;;7.32;4.60;;;8.10;99.90;;;;;;5046414;28;20032;-91
2024/02/02 05:36:45;;;;;;;8.40;4.78;;;8.10;99.90;;;;;;5049147;28;20053;-92
2024/02/02 05:39:11;;;;;;;6.97;4.63;;;8.10;99.90;;;;;;5045169;28;20395;-91
2024/02/02 05:41:37;;;;;;;9.30;5.05;;;8.10;99.90;;;;;;5053642;28;20487;-91
2024/02/02 05:44:02;;;;;;;6.85;4.68;;;8.10;99.90;;;;;;5038464;28;20028;-90
2024/02/02 05:46:28;;;;;;;10.95;4.78;;;8.10;99.90;;;;;;5046363;28;20037;-91
2024/02/02 05:48:53;;;;;;;10.05;5.30;;;8.10;99.90;;;;;;5039408;28;20104;-91
2024/02/02 05:51:19;;;;;;;9.52;4.55;;;8.20;99.90;;;;;;5051779;28;20047;-91
2024/02/02 05:53:45;;;;;;;9.50;5.35;;;8.10;99.90;;;;;;5036620;28;20122;-91
2024/02/02 05:56:10;;;;;;;9.45;4.90;;;8.10;99.90;;;;;;5040064;28;20549;-93
2024/02/02 05:58:36;;;;;;;7.78;4.30;;;8.10;99.90;;;;;;5042935;28;20028;-91
2024/02/02 06:01:01;;;;;;;6.78;4.45;;;8.10;99.90;;;;;;5039601;28;20071;-91
2024/02/02 06:03:27;;;;;;;8.27;4.65;;;8.10;99.90;;;;;;5040734;28;20029;-91
2024/02/02 06:05:53;;;;;;;5.68;4.38;;;8.10;99.90;;;;;;5034808;28;20021;-92
2024/02/02 06:08:19;;;;;;;6.45;4.22;;;8.10;99.90;;;;;;5038680;28;20030;-91
2024/02/02 06:10:45;;;;;;;7.47;4.65;;;8.10;99.90;;;;;;5034988;28;20029;-92
2024/02/02 06:13:10;;;;;;;9.10;4.30;;;8.10;99.90;;;;;;5042631;28;20048;-91
2024/02/02 06:15:36;;;;;;;6.57;4.55;;;8.10;99.90;;;;;;5034642;28;20037;-91
2024/02/02 06:18:02;;;;;;;8.10;4.35;;;8.10;99.90;;;;;;5035518;28;20499;-92
2024/02/02 06:20:27;;;;;;;6.97;4.70;;;8.10;99.90;;;;;;5043567;28;20129;-92
2024/02/02 06:22:53;;;;;;;7.38;4.20;;;8.10;99.90;;;;;;5044518;28;20522;-92
2024/02/02 06:25:18;;;;;;;9.77;4.85;;;8.10;99.90;;;;;;5037420;28;20025;-92
2024/02/02 06:27:44;;;;;;;12.70;5.03;;;8.10;99.90;;;;;;5040793;28;20057;-92
2024/02/02 06:30:11;;;;;;;10.25;5.07;;;8.10;99.90;;;;;;5041148;28;20132;-92
2024/02/02 06:32:38;;;;;;;6.72;4.10;;;8.10;99.90;;;;;;5041905;28;20083;-91
2024/02/02 06:35:04;;;;;;;8.48;4.28;;;8.10;99.90;;;;;;5041621;28;20057;-93
2024/02/02 06:37:30;;;;;;;9.82;4.57;;;8.10;99.90;;;;;;5027922;28;20033;-93
2024/02/02 06:39:56;;;;;;;9.05;4.72;;;8.10;99.90;;;;;;5032659;28;20031;-93
2024/02/02 06:42:24;;;;;;;7.28;4.57;;;8.10;99.90;;;;;;5042472;28;20063;-92
2024/02/02 06:44:51;;;;;;;9.65;5.28;;;8.10;99.90;;;;;;5035653;28;20734;-92
2024/02/02 06:47:17;;;;;;;11.77;6.38;;;8.10;99.90;;;;;;5037857;28;20044;-93
2024/02/02 06:49:44;;;;;;;17.10;7.88;;;8.10;99.90;;;;;;5043178;28;20025;-91
2024/02/02 06:52:10;;;;;;;15.05;7.90;;;8.10;99.90;;;;;;5040978;28;20032;-93
2024/02/02 06:54:36;;;;;;;16.40;7.47;;;8.10;99.90;;;;;;5033577;28;20049;-92
2024/02/02 06:57:03;;;;;;;13.95;7.07;;;8.10;99.90;;;;;;5040479;28;20483;-93
2024/02/02 06:59:28;;;;;;;13.52;7.32;;;8.10;99.90;;;;;;5037879;28;20026;-93
2024/02/02 07:01:55;;;;;;;14.70;7.28;;;8.10;99.90;;;;;;5041191;28;20021;-90
2024/02/02 07:04:21;;;;;;;11.52;6.20;;;8.10;99.90;;;;;;5034019;28;20021;-93
2024/02/02 07:06:48;;;;;;;10.98;6.10;;;8.10;99.90;;;;;;5033033;28;20099;-91
2024/02/02 07:09:19;;;;;;;10.57;5.93;;;8.10;99.90;;;;;;5039490;28;20096;-92
2024/02/02 07:11:58;;;;;;;11.80;5.68;;;8.10;99.90;;;;;;5033249;28;20056;-91
2024/02/02 07:14:48;;;;;;;10.93;5.93;;;8.10;99.90;;;;;;5034455;28;20022;-92
2024/02/02 07:17:14;;;;;;;;;;;8.10;99.90;;;;;;5043139;28;20031;-92
2024/02/02 07:19:41;;;;;;;8.82;4.93;;;8.10;99.90;;;;;;5046679;28;19909;-92
2024/02/02 07:22:25;;;;;;;8.05;4.45;;;8.10;99.90;;;;;;5033239;28;20043;-94
2024/02/02 07:24:51;;;;;;;11.38;4.47;;;8.10;99.90;;;;;;5033482;28;20025;-92
2024/02/02 07:27:43;;;;;;;8.35;4.68;;;8.10;99.90;;;;;;5033203;28;20019;-92
2024/02/02 07:30:39;;;;;;;6.72;4.10;;;8.10;99.90;;;;;;5003115;28;20037;-92
2024/02/02 07:33:16;;;;;;;7.95;4.85;;;8.10;99.90;;;;;;5011747;28;20030;-92
2024/02/02 07:35:42;;;;;;;7.38;4.45;;;8.10;99.90;;;;;;5012382;28;20089;-93
2024/02/02 07:38:17;;;;;;;8.10;4.95;;;8.10;99.90;;;;;;5015419;28;20061;-92
2024/02/02 07:41:12;;;;;;;8.35;4.55;;;8.10;99.90;;;;;;5010793;28;20030;-91
2024/02/02 07:43:38;;;;;;;10.45;5.13;;;8.10;99.90;;;;;;4994348;28;20034;-92
2024/02/02 07:46:05;;;;;;;10.18;5.18;;;8.10;99.90;;;;;;4993977;28;20028;-92
2024/02/02 07:48:31;;;;;;;6.40;3.85;;;8.10;99.90;;;;;;5004403;28;20038;-92
2024/02/02 07:50:57;;;;;;;9.85;4.72;;;8.10;99.90;;;;;;5014078;28;20044;-92
2024/02/02 07:53:23;;;;;;;8.80;4.78;;;8.10;99.90;;;;;;5005692;28;20030;-93
2024/02/02 07:55:49;;;;;;;9.65;4.95;;;8.10;99.90;;;;;;4997553;28;20049;-93
2024/02/02 07:58:16;;;;;;;6.90;3.67;;;8.10;99.90;;;;;;4998301;28;20062;-92
2024/02/02 08:00:42;;;;;;;8.30;5.07;;;8.10;99.90;;;;;;4989515;28;20030;-92
2024/02/02 08:03:08;;;;;;;6.20;4.15;;;8.10;99.90;;;;;;5008439;28;20531;-93
2024/02/02 08:05:37;;;;;;;8.95;4.55;;;8.10;99.90;;;;;;4991147;28;20484;-92
2024/02/02 08:08:06;;;;;;;6.95;4.03;;;8.10;99.90;;;;;;5040595;28;20029;-92
2024/02/02 08:10:32;;;;;;;6.88;4.43;;;8.10;99.90;;;;;;5045510;28;20029;-93
2024/02/02 08:12:58;;;;;;;10.70;4.78;;;8.10;99.90;;;;;;5038419;28;20074;-92
2024/02/02 08:15:24;;;;;;;6.80;3.92;;;8.10;99.90;;;;;;5040063;28;20435;-92
2024/02/02 08:17:51;;;;;;;5.80;3.85;;;8.10;99.90;;;;;;5032044;28;20024;-92
2024/02/02 08:20:16;;;;;;;7.28;4.45;;;8.10;99.90;;;;;;5030987;28;20048;-91
2024/02/02 08:22:46;;;;;;;9.07;4.43;;;8.10;99.90;;;;;;5043373;28;20021;-92
2024/02/02 08:25:12;;;;;;;7.95;5.13;;;8.10;99.90;;;;;;5042703;28;20017;-91
2024/02/02 08:27:38;;;;;;;7.53;4.22;;;8.10;99.90;;;;;;5040643;28;20508;-93
2024/02/02 08:30:05;;;;;;;10.13;4.25;;;8.10;99.90;;;;;;5031596;28;20025;-91
2024/02/02 08:32:31;;;;;;;10.27;4.72;;;8.10;99.90;;;;;;5037692;28;20033;-92
2024/02/02 08:34:57;;;;;;;7.13;4.50;;;8.10;99.90;;;;;;5031852;28;20052;-91
2024/02/02 08:37:23;;;;;;;11.45;5.10;;;8.10;99.90;;;;;;5041137;28;20116;-93
2024/02/02 08:39:49;;;;;;;9.13;3.92;;;8.10;99.90;;;;;;5038622;28;20546;-94
2024/02/02 08:42:22;;;;;;;8.57;4.82;;;8.10;99.90;;;;;;5045941;28;20021;-94
2024/02/02 08:44:49;;;;;;;9.30;4.22;;;8.10;99.90;;;;;;5043561;28;20025;-90
2024/02/02 08:47:14;;;;;;;6.53;4.13;;;8.10;99.90;;;;;;5036763;28;20029;-91
2024/02/02 08:49:55;;;;;;;7.07;4.45;;;8.10;99.90;;;;;;5044215;28;20029;-91
2024/02/02 08:52:35;;;;;;;5.88;3.97;;;8.10;99.90;;;;;;5031016;28;20029;-90
2024/02/02 08:55:04;;;;;;;6.90;4.22;;;8.10;99.90;;;;;;5041923;28;20510;-91
2024/02/02 08:57:31;;;;;;;9.75;4.55;;;8.10;99.90;;;;;;5037331;28;20036;-91
2024/02/02 09:00:04;;;;;;;7.63;4.47;;;8.10;99.90;;;;;;5048742;28;20024;-91
2024/02/02 09:03:07;;;;;;;7.15;4.50;;;8.10;99.90;;;;;;5038153;28;20100;-91
2024/02/02 09:06:02;;;;;;;6.78;3.97;;;8.10;99.90;;;;;;5027703;28;20046;-91
2024/02/02 09:08:34;;;;;;;9.55;4.13;;;8.10;99.90;;;;;;5031384;28;20033;-92
2024/02/02 09:10:59;;;;;;;9.18;4.68;;;8.10;99.90;;;;;;5044405;28;20029;-91
2024/02/02 09:13:28;;;;;;;8.95;4.68;;;8.10;99.90;;;;;;5038434;28;20395;-93
2024/02/02 09:15:54;;;;;;;8.40;4.35;;;8.10;99.90;;;;;;5021573;28;20026;-90
2024/02/02 09:18:34;;;;;;;8.90;4.93;;;8.10;99.90;;;;;;5034205;28;20063;-91
2024/02/02 09:21:00;;;;;;;12.00;4.60;;;8.10;99.90;;;;;;5031420;28;20026;-92
2024/02/02 09:23:29;;;;;;;10.77;4.05;;;8.10;99.90;;;;;;5041544;28;20025;-92
2024/02/02 09:25:54;;;;;;;6.50;4.03;;;8.10;99.90;;;;;;5039277;28;20040;-91
2024/02/02 09:28:32;;;;;;;10.48;5.18;;;8.10;99.90;;;;;;5038420;28;20100;-90
2024/02/02 09:31:00;;;;;;;8.40;4.78;;;8.10;99.90;;;;;;5044760;28;20030;-91
2024/02/02 09:33:31;;;;;;;6.95;4.68;;;8.10;99.90;;;;;;5046587;28;20033;-92
2024/02/02 09:35:59;;;;;;;7.28;4.25;;;8.10;99.90;;;;;;5040978;28;20491;-92
2024/02/02 09:38:25;;;;;;;8.40;4.50;;;8.10;99.90;;;;;;5046165;28;20025;-91
2024/02/02 09:41:02;;;;;;;8.80;5.05;;;8.10;99.90;;;;;;5033866;28;20379;-90
2024/02/02 09:44:04;;;;;;;8.43;5.03;;;8.10;99.90;;;;;;5040780;28;20014;-91
2024/02/02 09:46:54;;;;;;;9.40;5.38;;;8.10;99.90;;;;;;5034599;28;20021;-91
2024/02/02 09:49:34;;;;;;;9.32;5.28;;;8.10;99.90;;;;;;5030740;28;20021;-90
2024/02/02 09:52:23;;;;;;;9.40;5.50;;;8.10;99.90;;;;;;5040025;28;20112;-91
2024/02/02 09:54:54;;;;;;;11.20;6.22;;;8.10;99.90;;;;;;5035842;28;20102;-90
2024/02/02 09:57:31;;;;;;;10.63;6.63;;;8.10;99.90;;;;;;5039101;28;20030;-91
2024/02/02 10:00:16;;;;;;;15.10;6.15;;;8.10;99.90;;;;;;5034430;28;20134;-91
2024/02/02 10:03:13;;;;;;;12.50;6.13;;;8.10;99.90;;;;;;5042875;28;20484;-90
2024/02/02 10:06:03;;;;;;;11.63;5.93;;;8.10;99.90;;;;;;5031894;28;20055;-92
2024/02/02 10:08:55;;;;;;;13.65;6.65;;;8.10;99.90;;;;;;5031701;28;20025;-90
2024/02/02 10:11:27;;;;;;;11.52;6.25;;;8.10;99.90;;;;;;5030275;28;20598;-92
2024/02/02 10:14:07;;;;;;;14.02;6.50;;;8.10;99.90;;;;;;5034077;28;20018;-91
2024/02/02 10:16:40;;;;;;;11.40;5.25;;;8.10;99.90;;;;;;5043686;28;20029;-91
2024/02/02 10:19:18;;;;;;;13.43;5.28;;;8.10;99.90;;;;;;5033763;28;20060;-91
2024/02/02 10:22:16;;;;;;;8.63;4.82;;;8.10;99.90;;;;;;5040944;28;20013;-92
2024/02/02 10:24:48;;;;;;;11.80;5.68;;;8.10;99.90;;;;;;5028413;28;20018;-92
2024/02/02 10:27:47;;;;;;;11.95;5.60;;;8.10;99.90;;;;;;5033672;28;20035;-94
2024/02/02 10:30:32;;;;;;;11.32;5.60;;;8.10;99.90;;;;;;5033056;28;20025;-92
2024/02/02 10:33:35;;;;;;;9.38;5.63;;;8.10;99.90;;;;;;5034112;28;20076;-91
2024/02/02 10:36:21;;;;;;;12.32;5.30;;;8.10;99.90;;;;;;5031258;28;20033;-92
2024/02/02 10:38:59;;;;;;;8.70;4.80;;;8.10;99.90;;;;;;5040523;28;20013;-92
2024/02/02 10:41:34;;;;;;;11.52;5.32;;;8.10;99.90;;;;;;5033934;28;20017;-93
2024/02/02 10:44:20;;;;;;;13.60;5.25;;;8.10;99.90;;;;;;5034571;28;20026;-90
2024/02/02 10:47:08;;;;;;;10.35;5.15;;;8.10;99.90;;;;;;5039815;28;20014;-91
2024/02/02 10:50:07;;;;;;;11.65;5.93;;;8.10;99.90;;;;;;5035197;28;20104;-91
2024/02/02 10:52:33;;;;;;;12.32;5.95;;;8.10;99.90;;;;;;5041816;28;20097;-92
2024/02/02 10:55:14;;;;;;;13.60;6.13;;;8.10;99.90;;;;;;5033744;28;20101;-92
2024/02/02 10:58:01;;;;;;;11.88;5.90;;;8.10;99.90;;;;;;5033498;28;20036;-92
2024/02/02 11:00:38;;;;;;;11.32;6.43;;;8.10;99.90;;;;;;5028595;28;20022;-93
2024/02/02 11:03:28;;;;;;;12.75;5.07;;;8.10;99.90;;;;;;5032128;28;20057;-92
2024/02/02 11:06:13;;;;;;;;;;;8.10;99.90;;;;;;5034287;28;20499;-91
2024/02/02 11:08:54;;;;;;;11.60;5.63;;;8.10;99.90;;;;;;5030225;28;19910;-92
2024/02/02 11:11:23;;;;;;;13.63;6.50;;;8.10;99.90;;;;;;5037125;28;20025;-92
2024/02/02 11:14:09;;;;;;;14.25;6.68;;;8.10;99.90;;;;;;5047291;28;20109;-92
2024/02/02 11:17:04;;;;;;;12.93;6.78;;;8.10;99.90;;;;;;5039347;28;20020;-92
2024/02/02 11:19:54;;;;;;;13.35;6.03;;;8.20;99.90;;;;;;5030282;28;20029;-92
2024/02/02 11:22:37;;;;;;;12.02;5.80;;;8.20;99.90;;;;;;5034737;28;20049;-92
2024/02/02 11:25:35;;;;;;;12.15;6.43;;;8.20;99.90;;;;;;5036594;28;20126;-90
2024/02/02 11:28:17;;;;;;;13.98;6.90;;;8.20;99.90;;;;;;5034675;28;20057;-91
2024/02/02 11:31:10;;;;;;;13.65;6.47;;;8.20;99.90;;;;;;5038862;28;20021;-92
2024/02/02 11:33:59;;;;;;;12.65;5.72;;;8.20;99.90;;;;;;5036694;28;20021;-92
2024/02/02 11:37:06;;;;;;;14.40;6.70;;;8.20;99.90;;;;;;5037824;28;20033;-93
2024/02/02 11:39:53;;;;;;;14.38;5.65;;;8.30;99.90;;;;;;4993082;28;20018;-90
2024/02/02 11:42:21;;;;;;;12.70;5.53;;;8.40;99.90;;;;;;5040594;28;20360;-91
2024/02/02 11:44:47;;;;;;;9.55;5.20;;;8.40;99.90;;;;;;5037726;28;20021;-92
2024/02/02 11:47:15;;;;;;;9.88;5.03;;;8.40;99.90;;;;;;5037236;28;20017;-89
2024/02/02 11:49:46;;;;;;;14.05;5.97;;;8.40;99.90;;;;;;5037011;28;20029;-91
2024/02/02 11:52:39;;;;;;;12.55;6.03;;;8.40;99.90;;;;;;5042779;28;20514;-92
2024/02/02 11:55:29;;;;;;;11.88;5.57;;;8.40;99.90;;;;;;5032406;28;20025;-92
2024/02/02 11:58:07;;;;;;;10.88;5.57;;;8.40;99.90;;;;;;5050266;28;20013;-92
2024/02/02 12:01:00;;;;;;;12.95;5.85;;;8.40;99.90;;;;;;5043282;28;20025;-92
2024/02/02 12:03:39;;;;;;;11.00;5.25;;;8.40;99.90;;;;;;5048460;28;20021;-90
2024/02/02 12:06:27;;;;;;;13.82;6.60;;;8.40;99.90;;;;;;5029699;28;20060;-93
2024/02/02 12:09:17;;;;;;;13.10;5.93;;;8.40;99.90;;;;;;5032028;28;20025;-92
2024/02/02 12:11:48;;;;;;;10.20;5.50;;;8.40;99.90;;;;;;5040432;28;20032;-92
2024/02/02 12:14:34;;;;;;;11.25;5.93;;;8.50;99.90;;;;;;5034924;28;20678;-91
2024/02/02 12:17:00;;;;;;;9.95;5.70;;;8.50;99.90;;;;;;5035162;28;20030;-91
2024/02/02 12:19:26;;;;;;;13.13;5.68;;;8.50;99.90;;;;;;5031680;28;20055;-93
2024/02/02 12:21:53;;;;;;;10.32;5.30;;;8.50;99.90;;;;;;5051543;28;20096;-93
2024/02/02 12:24:18;;;;;;;15.10;5.97;;;8.50;99.90;;;;;;5035771;28;20021;-92
2024/02/02 12:26:44;;;;;;;11.55;5.65;;;8.50;99.90;;;;;;5034552;28;20109;-90
2024/02/02 12:29:11;;;;;;;10.18;5.28;;;8.50;99.90;;;;;;5029336;28;20021;-92
2024/02/02 12:31:36;;;;;;;13.10;5.93;;;8.50;99.90;;;;;;5036584;28;20021;-92
2024/02/02 12:34:03;;;;;;;11.00;5.10;;;8.50;99.90;;;;;;5029698;28;20030;-91
2024/02/02 12:36:28;;;;;;;10.57;5.55;;;8.50;99.90;;;;;;5033221;28;20032;-92
2024/02/02 12:38:58;;;;;;;12.10;5.80;;;8.50;99.90;;;;;;5039982;28;20065;-91
2024/02/02 12:41:23;;;;;;;13.13;5.25;;;8.50;99.90;;;;;;5036516;28;20025;-91
2024/02/02 12:43:49;;;;;;;12.43;5.80;;;8.50;99.90;;;;;;5035844;28;20021;-91
2024/02/02 12:46:14;;;;;;;11.38;5.22;;;8.50;99.90;;;;;;5031212;28;20104;-94
2024/02/02 12:48:40;;;;;;;10.18;5.35;;;8.50;99.90;;;;;;5037533;28;20033;-92
2024/02/02 12:51:06;;;;;;;10.30;5.10;;;8.60;99.90;;;;;;5041656;28;20021;-90
2024/02/02 12:53:32;;;;;;;9.30;4.43;;;9.00;99.90;;;;;;5035429;28;20970;-90
2024/02/02 12:55:58;;;;;;;8.27;3.97;;;8.90;99.90;;;;;;5029473;28;20546;-90
2024/02/02 12:58:24;;;;;;;9.23;4.75;;;8.80;99.90;;;;;;5035025;28;20037;-91
2024/02/02 13:00:50;;;;;;;7.53;4.30;;;8.70;99.90;;;;;;5034856;28;20026;-91
2024/02/02 13:03:17;;;;;;;11.00;4.85;;;8.70;99.90;;;;;;5041960;28;20037;-89
2024/02/02 13:05:44;;;;;;;9.23;4.43;;;8.60;99.90;;;;;;5040559;28;20045;-91